Weather at Portland Hillsboro Airport

Public forecast

Using degrees Fahrenheit for public forecast. Weather courtesy of forecast.io.

Current aviation weather report (METAR) for Portland Hillsboro Airport

Retrieved 2021/07/23 21:53 UTC (38 minutes ago):

KHIO 232153Z 26005KT 10SM CLR 28/08 A3020 RMK AO2 SLP225 T02780083

Aviation forecast (TAF) for Portland Hillsboro Airport

Retrieved 2021/07/23 18:42 UTC (4 hours ago):

TAF KHIO 231740Z 2318/2418 32005KT P6SM SKC FM232300 32010KT P6SM SKC FM240700 VRB03KT P6SM SKC